Time;durP1;ratioP1;P1;durP2;ratioP2;P2;SDS_P1;SDS_P2;PMS_P1;PMS_P2;Temp;Humidity;BMP_temperature;BMP_pressure;BME280_temperature;BME280_humidity;BME280_pressure;Samples;Min_cycle;Max_cycle;Signal;HPM_P1;HPM_P2
2022/08/16 00:00:25;;;;;;;;;;;20.50;99.90;;;;;;5135961;27;19923;-73
2022/08/16 00:02:52;;;;;;;;;;;20.50;99.90;;;;;;5117899;27;20015;-73
2022/08/16 00:05:18;;;;;;;;;;;20.50;99.90;;;;;;5135768;27;19923;-71
2022/08/16 00:07:43;;;;;;;;;;;20.50;99.90;;;;;;5135062;27;19923;-72
2022/08/16 00:10:10;;;;;;;;;;;20.50;99.90;;;;;;5117807;27;19946;-71
2022/08/16 00:12:40;;;;;;;;;;;20.50;99.90;;;;;;5135901;27;19924;-70
2022/08/16 00:15:08;;;;;;;;;;;20.50;99.90;;;;;;5135675;27;19924;-71
2022/08/16 00:17:33;;;;;;;;;;;20.50;99.90;;;;;;5135475;27;19949;-71
2022/08/16 00:19:59;;;;;;;;;;;20.50;99.90;;;;;;5135352;27;19976;-73
2022/08/16 00:22:24;;;;;;;;;;;20.50;99.90;;;;;;5136025;27;19923;-71
2022/08/16 00:24:50;;;;;;;;;;;20.50;99.90;;;;;;5135637;27;20297;-69
2022/08/16 00:27:15;;;;;;;;;;;20.50;99.90;;;;;;5135465;27;19930;-72
2022/08/16 00:29:41;;;;;;;;;;;20.40;99.90;;;;;;5135610;27;19923;-71
2022/08/16 00:32:07;;;;;;;;;;;20.40;99.90;;;;;;5135306;27;19966;-71
2022/08/16 00:34:34;;;;;;;;;;;20.50;99.90;;;;;;5135282;27;20434;-71
2022/08/16 00:37:00;;;;;;;;;;;20.40;99.90;;;;;;5135394;27;19929;-72
2022/08/16 00:39:25;;;;;;;;;;;20.50;99.90;;;;;;5135316;27;19923;-71
2022/08/16 00:41:51;;;;;;;;;;;20.40;99.90;;;;;;5135489;27;19923;-71
2022/08/16 00:44:19;;;;;;;;;;;20.40;99.90;;;;;;5135228;27;19928;-70
2022/08/16 00:46:52;;;;;;;;;;;20.40;99.90;;;;;;5134991;27;20274;-73
2022/08/16 00:49:19;;;;;;;;;;;20.40;99.90;;;;;;5135023;27;20014;-73
2022/08/16 00:51:44;;;;;;;;;;;20.40;99.90;;;;;;5116919;27;19938;-71
2022/08/16 00:54:10;;;;;;;;;;;20.40;99.90;;;;;;5135139;27;19923;-71
2022/08/16 00:56:37;;;;;;;;;;;20.40;99.90;;;;;;5117000;27;20027;-71
2022/08/16 00:59:03;;;;;;;;;;;20.40;99.90;;;;;;5135033;27;20010;-70
2022/08/16 01:01:31;;;;;;;;;;;20.40;99.90;;;;;;5134827;27;19968;-71
2022/08/16 01:03:57;;;;;;;;;;;20.40;99.90;;;;;;5151205;27;19923;-73
2022/08/16 01:06:22;;;;;;;;;;;20.30;99.90;;;;;;5134704;27;20358;-71
2022/08/16 01:08:51;;;;;;;;;;;20.40;99.90;;;;;;5134963;27;20309;-71
2022/08/16 01:11:16;;;;;;;;;;;20.40;99.90;;;;;;5134915;27;19923;-71
2022/08/16 01:13:42;;;;;;;;;;;20.40;99.90;;;;;;5134721;27;19924;-70
2022/08/16 01:16:28;;;;;;;;;;;20.40;99.90;;;;;;5134593;28;20378;-70
2022/08/16 01:19:06;;;;;;;;;;;20.40;99.90;;;;;;5133930;27;20381;-73
2022/08/16 01:21:37;;;;;;;;;;;20.40;99.90;;;;;;5134798;28;20297;-70
2022/08/16 01:24:03;;;;;;;;;;;20.40;99.90;;;;;;5134728;28;19923;-70
2022/08/16 01:26:29;;;;;;;;;;;20.30;99.90;;;;;;5134649;28;19931;-71
2022/08/16 01:28:56;;;;;;;;;;;20.40;99.90;;;;;;5134593;28;19976;-69
2022/08/16 01:31:23;;;;;;;;;;;20.30;99.90;;;;;;5134327;28;20346;-71
2022/08/16 01:33:48;;;;;;;;;;;20.30;99.90;;;;;;5135060;28;19924;-71
2022/08/16 01:36:14;;;;;;;;;;;20.30;99.90;;;;;;5116577;28;20282;-73
2022/08/16 01:38:41;;;;;;;;;;;20.30;99.90;;;;;;5134602;28;19923;-71
2022/08/16 01:41:10;;;;;;;;;;;20.30;99.90;;;;;;5116253;28;19923;-72
2022/08/16 01:43:37;;;;;;;;;;;20.20;99.90;;;;;;5134722;28;19924;-70
2022/08/16 01:46:04;;;;;;;;;;;20.20;99.90;;;;;;5134252;28;20320;-71
2022/08/16 01:48:31;;;;;;;;;;;20.20;99.90;;;;;;5134581;28;19927;-71
2022/08/16 01:50:57;;;;;;;;;;;20.20;99.90;;;;;;5134645;28;19971;-74
2022/08/16 01:53:23;;;;;;;;;;;20.20;99.90;;;;;;5134528;28;19930;-70
2022/08/16 01:55:49;;;;;;;;;;;20.20;99.90;;;;;;5134389;28;20010;-71
2022/08/16 01:58:15;;;;;;;;;;;20.20;99.90;;;;;;5134376;28;19927;-71
2022/08/16 02:00:41;;;;;;;;;;;20.10;99.90;;;;;;5116112;28;19935;-70
2022/08/16 02:03:07;;;;;;;;;;;20.10;99.90;;;;;;5134462;28;19924;-70
2022/08/16 02:05:33;;;;;;;;;;;20.10;99.90;;;;;;5134364;28;19930;-71
2022/08/16 02:07:58;;;;;;;;;;;20.10;99.90;;;;;;5134297;28;20289;-69
2022/08/16 02:10:24;;;;;;;;;;;20.10;99.90;;;;;;5134078;28;19927;-70
2022/08/16 02:12:50;;;;;;;;;;;20.10;99.90;;;;;;5134248;28;19964;-70
2022/08/16 02:15:17;;;;;;;;;;;20.10;99.90;;;;;;5134040;28;20377;-70
2022/08/16 02:17:42;;;;;;;;;;;20.10;99.90;;;;;;5134097;28;20022;-71
2022/08/16 02:20:09;;;;;;;;;;;20.00;99.90;;;;;;5134292;28;20408;-70
2022/08/16 02:22:35;;;;;;;;;;;20.10;99.90;;;;;;5115872;28;19978;-70
2022/08/16 02:25:00;;;;;;;;;;;20.00;99.90;;;;;;5134204;28;19974;-71
2022/08/16 02:27:26;;;;;;;;;;;20.00;99.90;;;;;;5115832;28;20308;-70
2022/08/16 02:29:52;;;;;;;;;;;20.00;99.90;;;;;;5135419;27;19924;-70
2022/08/16 02:32:17;;;;;;;;;;;20.00;99.90;;;;;;5137589;27;19927;-70
2022/08/16 02:34:43;;;;;;;;;;;20.00;99.90;;;;;;5137845;27;19923;-71
2022/08/16 02:37:09;;;;;;;;;;;20.00;99.90;;;;;;5137673;27;19969;-71
2022/08/16 02:39:35;;;;;;;;;;;20.30;99.90;;;;;;5137589;27;19924;-72
2022/08/16 02:42:01;;;;;;;;;;;20.00;99.90;;;;;;5137475;27;19968;-70
2022/08/16 02:44:26;;;;;;;;;;;20.00;99.90;;;;;;5137510;27;20277;-70
2022/08/16 02:46:52;;;;;;;;;;;20.00;99.90;;;;;;5137229;27;19975;-71
2022/08/16 02:49:18;;;;;;;;;;;19.90;99.90;;;;;;5137336;27;19930;-70
2022/08/16 02:51:43;;;;;;;;;;;19.90;99.90;;;;;;5137525;27;19935;-74
2022/08/16 02:54:10;;;;;;;;;;;19.90;99.90;;;;;;5137206;27;19947;-70
2022/08/16 02:56:35;;;;;;;;;;;19.90;99.90;;;;;;5137321;27;19924;-71
2022/08/16 02:59:01;;;;;;;;;;;19.90;99.90;;;;;;5137357;27;19923;-72
2022/08/16 03:01:29;;;;;;;;;;;19.20;99.90;;;;;;5137142;27;19923;-72
2022/08/16 03:03:54;;;;;;;;;;;19.90;99.90;;;;;;5137042;27;19928;-70
2022/08/16 03:06:21;;;;;;;;;;;19.80;99.90;;;;;;5137113;27;20018;-70
2022/08/16 03:08:47;;;;;;;;;;;19.90;99.90;;;;;;5119138;27;20454;-70
2022/08/16 03:11:15;;;;;;;;;;;19.90;99.90;;;;;;5153460;27;19924;-70
2022/08/16 03:13:41;;;;;;;;;;;19.90;99.90;;;;;;5136851;27;20444;-69
2022/08/16 03:16:06;;;;;;;;;;;19.90;99.90;;;;;;5153202;27;19985;-70
2022/08/16 03:18:32;;;;;;;;;;;19.90;99.90;;;;;;5136741;27;19923;-70
2022/08/16 03:21:00;;;;;;;;;;;19.90;99.90;;;;;;5136919;27;20016;-70
2022/08/16 03:23:26;;;;;;;;;;;19.90;99.90;;;;;;5136851;27;19923;-72
2022/08/16 03:25:51;;;;;;;;;;;19.90;99.90;;;;;;5136762;27;19930;-70
2022/08/16 03:28:17;;;;;;;;;;;19.90;99.90;;;;;;5136624;27;19923;-73
2022/08/16 03:30:43;;;;;;;;;;;19.90;99.90;;;;;;5136508;27;19923;-71
2022/08/16 03:33:08;;;;;;;;;;;19.90;99.90;;;;;;5136422;27;19975;-73
2022/08/16 03:35:36;;;;;;;;;;;19.90;99.90;;;;;;5136664;27;20281;-70
2022/08/16 03:38:03;;;;;;;;;;;19.80;99.90;;;;;;5136561;27;20349;-72
2022/08/16 03:40:30;;;;;;;;;;;19.80;99.90;;;;;;5135883;27;20304;-69
2022/08/16 03:42:56;;;;;;;;;;;19.80;99.90;;;;;;5135948;27;19924;-71
2022/08/16 03:45:22;;;;;;;;;;;19.90;99.90;;;;;;5136170;27;20012;-70
2022/08/16 03:47:49;;;;;;;;;;;19.90;99.90;;;;;;5117778;27;19924;-69
2022/08/16 03:50:16;;;;;;;;;;;19.80;99.90;;;;;;5136420;27;19984;-70
2022/08/16 03:52:41;;;;;;;;;;;19.80;99.90;;;;;;5118192;27;19931;-70
2022/08/16 03:55:08;;;;;;;;;;;19.80;99.90;;;;;;5136170;27;19923;-70
2022/08/16 03:57:34;;;;;;;;;;;19.80;99.90;;;;;;5136242;27;19950;-70
2022/08/16 03:59:59;;;;;;;;;;;19.80;99.90;;;;;;5135982;27;20361;-71
2022/08/16 04:02:25;;;;;;;;;;;19.80;99.90;;;;;;5117528;27;19924;-70
2022/08/16 04:04:52;;;;;;;;;;;19.90;99.90;;;;;;5135810;27;19934;-71
2022/08/16 04:07:18;;;;;;;;;;;19.90;99.90;;;;;;5135911;27;19923;-71
2022/08/16 04:09:44;;;;;;;;;;;19.90;99.90;;;;;;5135844;27;19928;-70
2022/08/16 04:12:10;;;;;;;;;;;19.80;99.90;;;;;;5135722;27;19923;-72
2022/08/16 04:14:36;;;;;;;;;;;19.80;99.90;;;;;;5135789;27;19924;-70
2022/08/16 04:17:02;;;;;;;;;;;19.80;99.90;;;;;;5135547;27;19930;-70
2022/08/16 04:19:28;;;;;;;;;;;19.80;99.90;;;;;;5135531;27;19924;-71
2022/08/16 04:21:53;;;;;;;;;;;19.80;99.90;;;;;;5135494;27;19933;-70
2022/08/16 04:24:19;;;;;;;;;;;19.80;99.90;;;;;;5135635;27;19931;-70
2022/08/16 04:26:45;;;;;;;;;;;19.80;99.90;;;;;;5135544;27;19923;-70
2022/08/16 04:29:11;;;;;;;;;;;19.80;99.90;;;;;;5117379;27;20387;-71
2022/08/16 04:31:36;;;;;;;;;;;19.80;99.90;;;;;;5151307;27;19923;-70
2022/08/16 04:34:02;;;;;;;;;;;19.80;99.90;;;;;;5135260;27;19969;-71
2022/08/16 04:36:28;;;;;;;;;;;19.80;99.90;;;;;;5135249;27;19930;-70
2022/08/16 04:38:54;;;;;;;;;;;19.80;99.90;;;;;;5135421;27;20385;-70
2022/08/16 04:41:20;;;;;;;;;;;19.80;99.90;;;;;;5135371;27;20391;-72
2022/08/16 04:43:46;;;;;;;;;;;19.80;99.90;;;;;;5135116;27;19924;-72
2022/08/16 04:46:13;;;;;;;;;;;19.70;99.90;;;;;;5134984;27;19924;-73
2022/08/16 04:48:40;;;;;;;;;;;19.70;99.90;;;;;;5135124;27;20331;-70
2022/08/16 04:51:06;;;;;;;;;;;19.70;99.90;;;;;;5135354;27;20016;-70
2022/08/16 04:53:32;;;;;;;;;;;19.70;99.90;;;;;;5150852;27;20018;-70
2022/08/16 04:55:58;;;;;;;;;;;19.70;99.90;;;;;;5135037;27;20420;-72
2022/08/16 04:58:25;;;;;;;;;;;19.70;99.90;;;;;;5135039;27;19927;-70
2022/08/16 05:00:51;;;;;;;;;;;19.60;99.90;;;;;;5134946;27;20408;-72
2022/08/16 05:03:16;;;;;;;;;;;19.60;99.90;;;;;;5116909;27;19923;-70
2022/08/16 05:05:42;;;;;;;;;;;19.60;99.90;;;;;;5134801;27;19923;-73
2022/08/16 05:08:08;;;;;;;;;;;19.60;99.90;;;;;;5134879;27;19931;-72
2022/08/16 05:10:34;;;;;;;;;;;19.60;99.90;;;;;;5134904;27;19928;-70
2022/08/16 05:13:01;;;;;;;;;;;19.60;99.90;;;;;;5134996;27;20291;-69
2022/08/16 05:15:27;;;;;;;;;;;19.60;99.90;;;;;;5134682;27;19923;-70
2022/08/16 05:17:52;;;;;;;;;;;19.60;99.90;;;;;;5134820;28;19930;-71
2022/08/16 05:20:19;;;;;;;;;;;19.60;99.90;;;;;;5116479;28;20442;-72
2022/08/16 05:22:45;;;;;;;;;;;19.60;99.90;;;;;;5151195;27;19923;-70
2022/08/16 05:25:11;;;;;;;;;;;19.60;99.90;;;;;;5116756;28;19956;-69
2022/08/16 05:27:37;;;;;;;;;;;19.60;99.90;;;;;;5134650;28;19984;-73
2022/08/16 05:30:03;;;;;;;;;;;19.60;99.90;;;;;;5134845;28;20266;-70
2022/08/16 05:32:29;;;;;;;;;;;19.60;99.90;;;;;;5134390;28;20006;-73
2022/08/16 05:34:54;;;;;;;;;;;19.60;99.90;;;;;;5134461;28;19974;-71
2022/08/16 05:37:22;;;;;;;;;;;19.70;99.90;;;;;;5134478;28;19932;-70
2022/08/16 05:39:48;;;;;;;;;;;19.70;99.90;;;;;;5134621;28;19923;-71
2022/08/16 05:42:13;;;;;;;;;;;19.90;99.90;;;;;;5134642;28;19930;-70
2022/08/16 05:44:39;;;;;;;;;;;19.70;99.90;;;;;;5133324;28;20270;-71
2022/08/16 05:47:04;;;;;;;;;;;19.70;99.90;;;;;;5134301;28;20400;-70
2022/08/16 05:49:30;;;;;;;;;;;19.70;99.90;;;;;;5134418;28;20400;-71
2022/08/16 05:51:56;;;;;;;;;;;19.70;99.90;;;;;;5134305;28;19989;-70
2022/08/16 05:54:22;;;;;;;;;;;19.80;99.90;;;;;;5116469;28;19930;-70
2022/08/16 05:56:47;;;;;;;;;;;19.80;99.90;;;;;;5134142;28;20013;-70
2022/08/16 05:59:14;;;;;;;;;;;19.80;99.90;;;;;;5115389;28;20016;-71
2022/08/16 06:01:40;;;;;;;;;;;19.90;99.90;;;;;;5115680;28;20064;-70
2022/08/16 06:04:06;;;;;;;;;;;19.90;99.90;;;;;;5134461;27;19924;-71
2022/08/16 06:06:32;;;;;;;;;;;19.90;99.90;;;;;;5119461;27;19923;-70
2022/08/16 06:08:57;;;;;;;;;;;19.90;99.90;;;;;;5119992;27;20317;-70
2022/08/16 06:11:23;;;;;;;;;;;20.00;99.90;;;;;;5120241;27;20095;-71
2022/08/16 06:13:49;;;;;;;;;;;20.00;99.90;;;;;;5119926;27;20329;-71
2022/08/16 06:16:14;;;;;;;;;;;20.00;99.90;;;;;;5137917;27;19931;-70
2022/08/16 06:18:43;;;;;;;;;;;20.00;99.90;;;;;;5137918;27;19931;-70
2022/08/16 06:21:10;;;;;;;;;;;20.00;99.90;;;;;;5137832;27;19928;-68
2022/08/16 06:23:35;;;;;;;;;;;19.70;99.90;;;;;;5138109;27;20297;-73
2022/08/16 06:26:01;;;;;;;;;;;20.10;99.90;;;;;;5137654;27;19924;-70
2022/08/16 06:28:27;;;;;;;;;;;20.10;99.90;;;;;;5119295;27;19937;-71
2022/08/16 06:30:52;;;;;;;;;;;20.20;99.90;;;;;;5137702;27;19937;-72
2022/08/16 06:33:18;;;;;;;;;;;20.20;99.90;;;;;;5137794;27;20374;-70
2022/08/16 06:35:45;;;;;;;;;;;20.20;99.90;;;;;;5137779;27;19927;-70
2022/08/16 06:38:11;;;;;;;;;;;20.30;99.90;;;;;;5101997;27;20029;-70
2022/08/16 06:40:37;;;;;;;;;;;20.80;99.90;;;;;;5137706;27;20317;-71
2022/08/16 06:43:02;;;;;;;;;;;20.40;99.90;;;;;;5119224;27;20313;-70
2022/08/16 06:45:28;;;;;;;;;;;20.50;99.90;;;;;;5137434;27;19930;-70
2022/08/16 06:47:53;;;;;;;;;;;20.50;99.90;;;;;;5137346;27;19927;-70
2022/08/16 06:50:19;;;;;;;;;;;20.50;99.90;;;;;;5152665;27;20328;-70
2022/08/16 06:52:45;;;;;;;;;;;20.50;99.90;;;;;;5137218;27;19924;-70
2022/08/16 06:55:11;;;;;;;;;;;20.50;99.90;;;;;;5137368;27;19923;-69
2022/08/16 06:57:37;;;;;;;;;;;20.50;99.90;;;;;;5137334;27;19930;-70
2022/08/16 07:00:12;;;;;;;;;;;20.60;99.90;;;;;;5137154;27;20007;-69
2022/08/16 07:02:42;;;;;;;;;;;20.60;99.90;;;;;;5136970;27;19945;-70
2022/08/16 07:05:08;;;;;;;;;;;20.60;99.90;;;;;;5136977;27;19923;-69
2022/08/16 07:07:34;;;;;;;;;;;20.60;99.90;;;;;;5118893;27;19979;-69
2022/08/16 07:09:59;;;;;;;;;;;20.70;99.90;;;;;;5137030;27;19927;-70
2022/08/16 07:12:25;;;;;;;;;;;20.80;99.90;;;;;;5118891;27;19924;-72
2022/08/16 07:14:50;;;;;;;;;;;20.80;99.90;;;;;;5136960;27;19924;-70
2022/08/16 07:17:21;;;;;;;;;;;20.80;99.90;;;;;;5118486;27;19931;-71
2022/08/16 07:19:47;;;;;;;;;;;20.90;99.90;;;;;;5118864;27;20012;-70
2022/08/16 07:22:14;;;;;;;;;;;20.90;99.90;;;;;;5136711;27;20417;-70
2022/08/16 07:24:39;;;;;;;;;;;21.00;99.90;;;;;;5136897;27;19923;-70
2022/08/16 07:27:05;;;;;;;;;;;21.00;99.90;;;;;;5136580;27;19931;-73
2022/08/16 07:29:30;;;;;;;;;;;21.10;99.90;;;;;;5154607;27;19930;-69
2022/08/16 07:31:56;;;;;;;;;;;21.10;99.90;;;;;;5159455;27;19922;-70
2022/08/16 07:34:21;;;;;;;;;;;21.20;99.90;;;;;;5178166;27;19927;-70
2022/08/16 07:36:47;;;;;;;;;;;21.30;99.90;;;;;;5173318;27;19927;-70
2022/08/16 07:39:13;;;;;;;;;;;21.30;99.90;;;;;;5157284;27;19923;-70
2022/08/16 07:41:38;;;;;;;;;;;21.60;99.90;;;;;;5157171;27;19927;-70
2022/08/16 07:44:04;;;;;;;;;;;21.40;99.90;;;;;;5138677;27;20021;-71
2022/08/16 07:46:30;;;;;;;;;;;21.50;99.90;;;;;;5138629;27;19991;-70
2022/08/16 07:48:56;;;;;;;;;;;21.50;99.90;;;;;;5138690;27;19923;-73
2022/08/16 07:51:21;;;;;;;;;;;21.60;99.90;;;;;;5156877;27;20008;-70
2022/08/16 07:53:50;;;;;;;;;;;21.70;99.90;;;;;;5156804;27;19923;-70
2022/08/16 07:56:19;;;;;;;;;;;21.70;99.90;;;;;;5156924;27;19930;-71
2022/08/16 07:58:45;;;;;;;;;;;21.80;99.90;;;;;;5156787;27;20411;-70
2022/08/16 08:01:12;;;;;;;;;;;21.80;99.90;;;;;;5156694;27;19923;-71
2022/08/16 08:03:39;;;;;;;;;;;21.90;99.90;;;;;;5156687;27;19996;-70
2022/08/16 08:06:04;;;;;;;;;;;21.90;99.90;;;;;;5156494;27;19927;-69
2022/08/16 08:08:30;;;;;;;;;;;21.90;99.90;;;;;;5156647;27;19929;-71
2022/08/16 08:10:55;;;;;;;;;;;22.00;99.90;;;;;;5156308;27;19930;-71
2022/08/16 08:13:21;;;;;;;;;;;22.00;99.90;;;;;;5156681;27;19923;-73
2022/08/16 08:15:47;;;;;;;;;;;22.10;99.90;;;;;;5156213;27;20382;-70
2022/08/16 08:18:13;;;;;;;;;;;22.10;99.90;;;;;;5156466;27;20017;-70
2022/08/16 08:20:43;;;;;;;;;;;22.20;99.90;;;;;;5154844;27;19930;-70
2022/08/16 08:23:10;;;;;;;;;;;22.30;99.90;;;;;;5137304;27;20022;-70
2022/08/16 08:25:36;;;;;;;;;;;22.30;99.90;;;;;;5156286;27;19937;-70
2022/08/16 08:28:02;;;;;;;;;;;22.50;99.90;;;;;;5155301;27;20025;-72
2022/08/16 08:30:28;;;;;;;;;;;22.50;99.90;;;;;;5156200;27;19981;-70
2022/08/16 08:32:54;;;;;;;;;;;22.60;99.90;;;;;;5155934;27;20294;-71
2022/08/16 08:35:19;;;;;;;;;;;22.60;99.90;;;;;;5137802;27;19972;-70
2022/08/16 08:37:45;;;;;;;;;;;22.70;99.90;;;;;;5155903;27;19923;-74
2022/08/16 08:40:11;;;;;;;;;;;22.80;99.90;;;;;;5155874;27;19923;-70
2022/08/16 08:42:37;;;;;;;;;;;22.90;99.90;;;;;;5155938;27;20404;-75
2022/08/16 08:45:03;;;;;;;;;;;22.90;99.90;;;;;;5155934;27;19970;-70
2022/08/16 08:47:29;;;;;;;;;;;23.00;99.90;;;;;;5155583;27;19923;-71
2022/08/16 08:49:55;;;;;;;;;;;23.00;99.90;;;;;;5137379;27;20397;-70
2022/08/16 08:52:21;;;;;;;;;;;23.10;99.90;;;;;;5137439;27;19977;-70
2022/08/16 08:54:47;;;;;;;;;;;23.20;99.90;;;;;;5137752;27;19992;-70
2022/08/16 08:57:14;;;;;;;;;;;23.30;99.90;;;;;;5155742;27;20010;-72
2022/08/16 08:59:40;;;;;;;;;;;23.30;99.90;;;;;;5155727;27;19923;-70
2022/08/16 09:02:07;;;;;;;;;;;23.40;99.90;;;;;;5155422;27;19975;-70
2022/08/16 09:04:33;;;;;;;;;;;23.40;99.90;;;;;;5155361;27;19930;-71
2022/08/16 09:06:58;;;;;;;;;;;23.50;99.90;;;;;;5155386;27;19923;-73
2022/08/16 09:09:24;;;;;;;;;;;23.60;99.90;;;;;;5155607;27;19930;-70
2022/08/16 09:11:51;;;;;;;;;;;23.60;99.90;;;;;;5135568;27;19931;-72
2022/08/16 09:14:16;;;;;;;;;;;23.70;99.90;;;;;;5155653;27;20018;-72
2022/08/16 09:16:42;;;;;;;;;;;23.70;99.90;;;;;;5155358;27;20374;-70
2022/08/16 09:19:08;;;;;;;;;;;23.80;99.90;;;;;;5137239;27;19931;-71
2022/08/16 09:21:35;;;;;;;;;;;23.90;99.90;;;;;;5136840;27;19951;-70
2022/08/16 09:24:01;;;;;;;;;;;23.90;99.90;;;;;;5135860;27;20429;-71
2022/08/16 09:26:26;;;;;;;;;;;24.00;99.90;;;;;;5155384;27;20010;-70
2022/08/16 09:28:52;;;;;;;;;;;24.10;99.90;;;;;;5154223;27;19927;-71
2022/08/16 09:31:18;;;;;;;;;;;24.10;99.90;;;;;;5136669;27;19938;-73
2022/08/16 09:33:44;;;;;;;;;;;24.20;99.90;;;;;;5155292;27;19923;-73
2022/08/16 09:36:10;;;;;;;;;;;24.30;99.90;;;;;;5155140;27;19922;-70
2022/08/16 09:38:37;;;;;;;;;;;24.30;99.90;;;;;;5156472;27;19969;-71
2022/08/16 09:41:04;;;;;;;;;;;24.40;99.90;;;;;;5159530;27;19927;-71
2022/08/16 09:43:30;;;;;;;;;;;24.50;99.90;;;;;;5141082;27;19977;-70
2022/08/16 09:45:56;;;;;;;;;;;24.50;99.90;;;;;;5159309;27;20024;-70
2022/08/16 09:48:21;;;;;;;;;;;24.60;99.90;;;;;;5159250;27;19923;-70
2022/08/16 09:50:47;;;;;;;;;;;24.70;99.90;;;;;;5158921;27;19968;-73
2022/08/16 09:53:15;;;;;;;;;;;24.70;99.90;;;;;;5159104;27;19923;-72
2022/08/16 09:55:42;;;;;;;;;;;24.80;99.90;;;;;;5159352;27;19982;-71
2022/08/16 09:58:08;;;;;;;;;;;24.80;99.90;;;;;;5157798;27;19926;-72
2022/08/16 10:00:33;;;;;;;;;;;24.90;99.90;;;;;;5140793;27;19923;-71
2022/08/16 10:02:59;;;;;;;;;;;24.90;99.90;;;;;;5159045;27;19966;-70
2022/08/16 10:05:25;;;;;;;;;;;25.10;99.90;;;;;;5158909;27;19962;-72
2022/08/16 10:07:51;;;;;;;;;;;25.10;99.90;;;;;;5158824;27;20039;-70
2022/08/16 10:10:21;;;;;;;;;;;25.20;99.90;;;;;;5140611;27;20378;-71
2022/08/16 10:15:32;;;;;;;;;;;25.30;99.90;;;;;;5158753;27;19946;-70
2022/08/16 10:17:58;;;;;;;;;;;25.40;99.90;;;;;;5158733;27;19923;-69
2022/08/16 10:20:25;;;;;;;;;;;25.40;99.90;;;;;;5140391;27;19927;-70
2022/08/16 10:22:51;;;;;;;;;;;25.30;99.90;;;;;;5174789;27;19923;-71
2022/08/16 10:25:17;;;;;;;;;;;25.60;99.90;;;;;;5140483;27;19930;-71
2022/08/16 10:27:44;;;;;;;;;;;25.60;99.90;;;;;;5158429;27;20385;-73
2022/08/16 10:30:09;;;;;;;;;;;25.70;99.90;;;;;;5158575;27;19923;-71
2022/08/16 10:32:35;;;;;;;;;;;25.70;99.90;;;;;;5158387;27;19923;-72
2022/08/16 10:35:02;;;;;;;;;;;25.70;99.90;;;;;;5158341;27;20014;-72
2022/08/16 10:37:27;;;;;;;;;;;25.80;99.90;;;;;;5158214;27;19923;-71
2022/08/16 10:39:53;;;;;;;;;;;25.80;99.90;;;;;;5140100;27;19930;-71
2022/08/16 10:42:19;;;;;;;;;;;25.80;99.90;;;;;;5158551;27;19992;-72
2022/08/16 10:44:44;;;;;;;;;;;25.80;99.90;;;;;;5158286;27;19930;-72
2022/08/16 10:47:10;;;;;;;;;;;25.80;99.90;;;;;;5158053;27;20375;-71
2022/08/16 10:49:36;;;;;;;;;;;25.90;99.90;;;;;;5157950;27;19978;-72
2022/08/16 10:52:02;;;;;;;;;;;25.90;99.90;;;;;;5157390;27;19923;-71
2022/08/16 10:54:28;;;;;;;;;;;25.90;99.90;;;;;;5173721;27;20381;-73
2022/08/16 10:56:54;;;;;;;;;;;25.90;99.90;;;;;;5139613;27;19930;-70
2022/08/16 10:59:21;;;;;;;;;;;26.00;99.90;;;;;;5157942;27;19932;-71
2022/08/16 11:01:46;;;;;;;;;;;26.00;99.90;;;;;;5157802;27;19923;-71
2022/08/16 11:04:13;;;;;;;;;;;26.00;99.90;;;;;;5157737;27;19982;-73
2022/08/16 11:06:39;;;;;;;;;;;26.10;99.90;;;;;;5157566;27;19923;-72
2022/08/16 11:09:04;;;;;;;;;;;26.10;99.90;;;;;;5139401;27;19934;-70
2022/08/16 11:11:30;;;;;;;;;;;26.10;99.90;;;;;;5158036;27;20293;-71
2022/08/16 11:13:55;;;;;;;;;;;26.20;99.90;;;;;;5157683;27;19974;-73
2022/08/16 11:16:21;;;;;;;;;;;26.20;99.90;;;;;;5138725;27;20017;-72
2022/08/16 11:18:47;;;;;;;;;;;26.20;99.90;;;;;;5157484;27;20042;-72
2022/08/16 11:21:13;;;;;;;;;;;26.20;99.90;;;;;;5139287;27;19923;-71
2022/08/16 11:23:39;;;;;;;;;;;26.30;99.90;;;;;;5157368;27;20021;-71
2022/08/16 11:26:05;;;;;;;;;;;26.30;99.90;;;;;;5157610;27;19974;-71
2022/08/16 11:28:31;;;;;;;;;;;26.30;99.90;;;;;;5157146;27;20300;-73
2022/08/16 11:31:12;;;;;;;;;;;26.30;99.90;;;;;;5138583;27;19931;-71
2022/08/16 11:33:38;;;;;;;;;;;26.40;99.90;;;;;;5157304;27;20022;-73
2022/08/16 11:36:03;;;;;;;;;;;26.40;99.90;;;;;;5157146;27;20419;-71
2022/08/16 11:38:29;;;;;;;;;;;26.50;99.90;;;;;;5155466;27;19974;-72
2022/08/16 11:40:56;;;;;;;;;;;26.50;99.90;;;;;;5139022;27;20358;-71
2022/08/16 11:43:23;;;;;;;;;;;26.50;99.90;;;;;;5157161;27;19962;-73
2022/08/16 11:45:49;;;;;;;;;;;26.50;99.90;;;;;;5157033;27;19967;-71
2022/08/16 11:48:15;;;;;;;;;;;26.60;99.90;;;;;;5156825;27;19927;-72
2022/08/16 11:50:41;;;;;;;;;;;26.60;99.90;;;;;;5156960;27;19930;-70
2022/08/16 11:53:07;;;;;;;;;;;26.60;99.90;;;;;;5156788;27;19946;-73
2022/08/16 11:55:33;;;;;;;;;;;26.60;99.90;;;;;;5157019;27;20377;-72
2022/08/16 11:57:59;;;;;;;;;;;26.70;99.90;;;;;;5156753;27;19990;-73
2022/08/16 12:00:24;;;;;;;;;;;26.70;99.90;;;;;;5156768;27;20404;-71
2022/08/16 12:02:50;;;;;;;;;;;26.70;99.90;;;;;;5155586;27;20025;-71
2022/08/16 12:05:16;;;;;;;;;;;26.70;99.90;;;;;;5156654;27;20014;-71
2022/08/16 12:07:42;;;;;;;;;;;26.80;99.90;;;;;;5156380;27;19937;-73
2022/08/16 12:10:13;;;;;;;;;;;26.80;99.90;;;;;;5156705;27;19980;-72
2022/08/16 12:12:39;;;;;;;;;;;26.70;99.90;;;;;;5156457;27;19923;-71
2022/08/16 12:15:05;;;;;;;;;;;26.90;99.90;;;;;;5156523;27;19927;-71
2022/08/16 12:17:31;;;;;;;;;;;26.90;99.90;;;;;;5156257;27;19930;-71
2022/08/16 12:19:56;;;;;;;;;;;26.90;99.90;;;;;;5156389;27;19968;-72
2022/08/16 12:22:23;;;;;;;;;;;26.90;99.90;;;;;;5156282;27;20321;-72
2022/08/16 12:24:55;;;;;;;;;;;26.90;97.00;;;;;;5125270;27;1965208;-72
2022/08/16 12:27:22;;;;;;;;;;;27.00;98.90;;;;;;5194620;27;20285;-71
2022/08/16 12:29:50;;;;;;;;;;;27.00;98.10;;;;;;5175844;27;19928;-73
2022/08/16 12:32:16;;;;;;;;;;;27.10;99.90;;;;;;5194510;27;19930;-72
2022/08/16 12:34:41;;;;;;;;;;;27.10;99.90;;;;;;5194409;27;19922;-70
2022/08/16 12:37:07;;;;;;;;;;;27.10;99.10;;;;;;5194239;27;20281;-70
2022/08/16 12:39:33;;;;;;;;;;;27.20;96.90;;;;;;5194469;27;19930;-71
2022/08/16 12:41:58;;;;;;;;;;;27.20;98.60;;;;;;5175792;27;19946;-72
2022/08/16 12:44:25;;;;;;;;;;;27.10;96.80;;;;;;5194327;27;19923;-71
2022/08/16 12:49:35;;;;;;;;;;;27.30;93.20;;;;;;5194026;27;19923;-71
2022/08/16 12:52:00;;;;;;;;;;;27.30;94.70;;;;;;5175833;27;19922;-71
2022/08/16 12:54:26;;;;;;;;;;;27.30;93.90;;;;;;5194359;27;19929;-71
2022/08/16 12:56:51;;;;;;;;;;;27.30;93.50;;;;;;5194064;27;20021;-71
2022/08/16 12:59:18;;;;;;;;;;;27.30;93.80;;;;;;5175576;27;20080;-71
2022/08/16 13:01:46;;;;;;;;;;;27.30;93.80;;;;;;5192432;27;19929;-71
2022/08/16 13:04:13;;;;;;;;;;;27.30;94.90;;;;;;5175628;27;20304;-71
2022/08/16 13:06:40;;;;;;;;;;;27.30;95.00;;;;;;5135894;27;19927;-71
2022/08/16 13:09:19;;;;;;;;;;;27.40;95.20;;;;;;5172860;27;20013;-73
2022/08/16 13:11:47;;;;;;;;;;;27.40;93.60;;;;;;5172819;27;20018;-71
2022/08/16 13:14:13;;;;;;;;;;;27.40;90.40;;;;;;5172639;27;19962;-71
2022/08/16 13:16:41;;;;;;;;;;;27.40;91.90;;;;;;5172448;27;19927;-73
2022/08/16 13:19:06;;;;;;;;;;;27.40;93.10;;;;;;5174256;27;19930;-73
2022/08/16 13:21:32;;;;;;;;;;;27.50;93.30;;;;;;5182660;27;20440;-72
2022/08/16 13:23:58;;;;;;;;;;;27.20;87.50;;;;;;5193102;27;19926;-72
2022/08/16 13:26:24;;;;;;;;;;;27.50;91.00;;;;;;5193448;27;19929;-73
2022/08/16 13:28:50;;;;;;;;;;;27.50;90.00;;;;;;5193371;27;20435;-72
2022/08/16 13:31:15;;;;;;;;;;;27.50;87.10;;;;;;5193240;27;19923;-73
2022/08/16 13:33:41;;;;;;;;;;;27.60;78.50;;;;;;5174807;27;19929;-73
2022/08/16 13:36:08;;;;;;;;;;;27.60;81.50;;;;;;5180226;27;19996;-71
2022/08/16 13:38:34;;;;;;;;;;;27.60;81.50;;;;;;5179076;27;20322;-72
2022/08/16 13:41:01;;;;;;;;;;;27.70;83.60;;;;;;5179216;27;19923;-72
2022/08/16 13:43:28;;;;;;;;;;;27.80;84.10;;;;;;5179087;27;19945;-72
2022/08/16 13:45:55;;;;;;;;;;;27.80;76.60;;;;;;5179100;27;19969;-72
2022/08/16 13:48:21;;;;;;;;;;;27.90;78.60;;;;;;5178709;27;19930;-73
2022/08/16 13:50:46;;;;;;;;;;;27.90;77.10;;;;;;5178901;27;19923;-72
2022/08/16 13:53:12;;;;;;;;;;;27.90;80.50;;;;;;5172061;27;19923;-72
2022/08/16 13:55:37;;;;;;;;;;;27.90;81.50;;;;;;5177271;27;19927;-73
2022/08/16 13:58:04;;;;;;;;;;;28.00;77.20;;;;;;5178795;27;19929;-73
2022/08/16 14:00:29;;;;;;;;;;;28.00;76.00;;;;;;5178729;27;19923;-73
2022/08/16 14:02:55;;;;;;;;;;;28.00;77.50;;;;;;5178518;27;19923;-73
2022/08/16 14:05:20;;;;;;;;;;;27.90;74.20;;;;;;5178611;27;19973;-73
2022/08/16 14:07:46;;;;;;;;;;;27.90;75.90;;;;;;5178779;27;20030;-72
2022/08/16 14:10:12;;;;;;;;;;;28.00;78.50;;;;;;5160380;27;20013;-71
2022/08/16 14:12:38;;;;;;;;;;;28.00;80.40;;;;;;5160211;27;20107;-72
2022/08/16 14:15:07;;;;;;;;;;;28.00;77.20;;;;;;5178333;27;20286;-71